Time;durP1;ratioP1;P1;durP2;ratioP2;P2;SDS_P1;SDS_P2;PMS_P1;PMS_P2;Temp;Humidity;BMP_temperature;BMP_pressure;BME280_temperature;BME280_humidity;BME280_pressure;Samples;Min_cycle;Max_cycle;Signal;HPM_P1;HPM_P2
2024/03/06 00:02:18;;;;;;;4.28;1.10;;;;;;;;;;4874539;29;20056;-74
2024/03/06 00:04:49;;;;;;;2.15;0.98;;;;;;;;;;4874822;29;20048;-74
2024/03/06 00:10:22;;;;;;;1.85;0.63;;;;;;;;;;4874206;29;20056;-74
2024/03/06 00:13:25;;;;;;;3.78;0.60;;;;;;;;;;4874392;29;20049;-74
2024/03/06 00:15:55;;;;;;;4.30;0.68;;;;;;;;;;4874472;29;20052;-72
2024/03/06 00:18:28;;;;;;;2.97;0.75;;;;;;;;;;4874511;29;20060;-72
2024/03/06 00:20:59;;;;;;;2.67;0.98;;;;;;;;;;4874265;29;20064;-74
2024/03/06 00:23:30;;;;;;;1.35;0.70;;;;;;;;;;4871781;29;20072;-73
2024/03/06 00:26:13;;;;;;;3.38;1.30;;;;;;;;;;4873719;29;20060;-72
2024/03/06 00:31:47;;;;;;;7.18;0.73;;;;;;;;;;4873815;29;20049;-74
2024/03/06 00:34:17;;;;;;;3.92;0.80;;;;;;;;;;4874432;29;20045;-73
2024/03/06 00:36:50;;;;;;;2.35;0.68;;;;;;;;;;4870486;29;20054;-73
2024/03/06 00:42:23;;;;;;;2.22;0.70;;;;;;;;;;4871397;29;20492;-73
2024/03/06 00:44:54;;;;;;;1.58;0.40;;;;;;;;;;4872018;29;20415;-74
2024/03/06 00:47:24;;;;;;;1.65;0.60;;;;;;;;;;4871348;29;20060;-74
2024/03/06 00:49:57;;;;;;;1.42;0.60;;;;;;;;;;4871269;29;20516;-75
2024/03/06 00:52:27;;;;;;;4.22;0.55;;;;;;;;;;4871110;29;20057;-75
2024/03/06 00:54:57;;;;;;;1.25;0.40;;;;;;;;;;4871373;29;20535;-72
2024/03/06 00:57:29;;;;;;;4.65;0.70;;;;;;;;;;4870592;29;20851;-80
2024/03/06 01:00:00;;;;;;;2.55;0.70;;;;;;;;;;4869096;29;20056;-75
2024/03/06 01:02:31;;;;;;;2.67;1.00;;;;;;;;;;4870357;29;20041;-74
2024/03/06 01:05:03;;;;;;;5.13;1.15;;;;;;;;;;4871009;29;20404;-74
2024/03/06 01:07:35;;;;;;;6.70;0.90;;;;;;;;;;4868626;29;20061;-73
2024/03/06 01:10:08;;;;;;;6.35;0.98;;;;;;;;;;4868676;29;20610;-73
2024/03/06 01:12:39;;;;;;;3.28;0.82;;;;;;;;;;4869340;29;20057;-73
2024/03/06 01:15:09;;;;;;;2.05;0.85;;;;;;;;;;4869119;29;20508;-73
2024/03/06 01:17:42;;;;;;;1.92;0.50;;;;;;;;;;4867805;29;20508;-74
2024/03/06 01:20:14;;;;;;;3.50;0.43;;;;;;;;;;4869181;29;20045;-73
2024/03/06 01:22:46;;;;;;;0.75;0.40;;;;;;;;;;4870314;29;20052;-74
2024/03/06 01:25:17;;;;;;;4.93;0.80;;;;;;;;;;4870670;29;20059;-73
2024/03/06 01:27:51;;;;;;;8.35;1.13;;;;;;;;;;4870882;29;20841;-74
2024/03/06 01:30:22;;;;;;;3.50;0.60;;;;;;;;;;4871432;29;20057;-73
2024/03/06 01:32:53;;;;;;;3.60;0.60;;;;;;;;;;4870784;29;20049;-75
2024/03/06 01:35:24;;;;;;;6.55;0.70;;;;;;;;;;4870785;29;20536;-73
2024/03/06 01:37:56;;;;;;;3.45;0.90;;;;;;;;;;4870926;29;20049;-73
2024/03/06 01:40:29;;;;;;;3.22;0.70;;;;;;;;;;4869971;29;20615;-75
2024/03/06 01:43:01;;;;;;;4.80;0.70;;;;;;;;;;4870090;29;20049;-73
2024/03/06 01:45:32;;;;;;;2.63;0.60;;;;;;;;;;4870059;29;20055;-73
2024/03/06 01:48:03;;;;;;;3.40;0.50;;;;;;;;;;4870034;29;20060;-73
2024/03/06 01:50:38;;;;;;;5.63;0.95;;;;;;;;;;4870637;29;20053;-73
2024/03/06 01:53:10;;;;;;;1.27;0.50;;;;;;;;;;4870797;29;20067;-74
2024/03/06 01:55:41;;;;;;;1.70;0.90;;;;;;;;;;4869821;29;20084;-74
2024/03/06 01:58:12;;;;;;;1.77;0.75;;;;;;;;;;4868100;29;20512;-73
2024/03/06 02:00:43;;;;;;;1.80;0.63;;;;;;;;;;4870620;29;20061;-73
2024/03/06 02:03:13;;;;;;;5.53;0.52;;;;;;;;;;4870153;29;20416;-74
2024/03/06 02:05:43;;;;;;;2.28;0.45;;;;;;;;;;4868443;29;20064;-79
2024/03/06 02:08:16;;;;;;;7.03;0.63;;;;;;;;;;4870231;29;20406;-74
2024/03/06 02:10:48;;;;;;;8.20;0.60;;;;;;;;;;4869901;29;20520;-73
2024/03/06 02:13:19;;;;;;;4.90;0.60;;;;;;;;;;4870232;29;20530;-73
2024/03/06 02:15:49;;;;;;;9.55;0.95;;;;;;;;;;4870185;29;20103;-73
2024/03/06 02:18:21;;;;;;;1.15;0.50;;;;;;;;;;4868178;29;20053;-74
2024/03/06 02:20:52;;;;;;;2.22;0.65;;;;;;;;;;4869509;29;20064;-73
2024/03/06 02:23:23;;;;;;;2.10;0.60;;;;;;;;;;4870000;29;20053;-73
2024/03/06 02:25:53;;;;;;;1.90;0.52;;;;;;;;;;4869948;29;20049;-73
2024/03/06 02:28:25;;;;;;;1.98;0.55;;;;;;;;;;4869223;29;20048;-73
2024/03/06 02:30:57;;;;;;;0.60;0.50;;;;;;;;;;4869566;29;20053;-74
2024/03/06 02:33:27;;;;;;;1.20;0.60;;;;;;;;;;4870110;29;20060;-74
2024/03/06 02:35:58;;;;;;;3.45;0.63;;;;;;;;;;4870099;29;20057;-73
2024/03/06 02:38:29;;;;;;;2.67;0.70;;;;;;;;;;4869169;29;20057;-73
2024/03/06 02:41:00;;;;;;;3.97;1.02;;;;;;;;;;4869766;29;20112;-73
2024/03/06 02:43:30;;;;;;;3.33;0.60;;;;;;;;;;4869416;29;20057;-73
2024/03/06 02:46:00;;;;;;;4.07;0.60;;;;;;;;;;4869163;29;20049;-73
2024/03/06 02:48:31;;;;;;;3.67;0.68;;;;;;;;;;4869421;29;20513;-73
2024/03/06 02:51:04;;;;;;;1.42;0.50;;;;;;;;;;4869533;29;20045;-74
2024/03/06 02:53:35;;;;;;;2.55;0.60;;;;;;;;;;4868979;29;20045;-73
2024/03/06 02:56:07;;;;;;;0.70;0.65;;;;;;;;;;4870021;29;20053;-73
2024/03/06 02:58:38;;;;;;;1.52;0.40;;;;;;;;;;4868911;29;20045;-73
2024/03/06 03:01:10;;;;;;;2.75;0.65;;;;;;;;;;4869065;29;20530;-73
2024/03/06 03:03:42;;;;;;;8.32;0.90;;;;;;;;;;4868885;29;20424;-74
2024/03/06 03:06:12;;;;;;;10.75;0.88;;;;;;;;;;4868716;29;20056;-73
2024/03/06 03:08:43;;;;;;;6.25;0.60;;;;;;;;;;4866956;29;20064;-73
2024/03/06 03:11:16;;;;;;;6.97;0.80;;;;;;;;;;4868063;29;20068;-73
2024/03/06 03:13:46;;;;;;;1.90;0.68;;;;;;;;;;4869267;29;20619;-76
2024/03/06 03:16:18;;;;;;;3.92;0.60;;;;;;;;;;4867536;29;20064;-73
2024/03/06 03:18:49;;;;;;;5.65;0.90;;;;;;;;;;4868784;29;20057;-73
2024/03/06 03:21:21;;;;;;;6.53;0.70;;;;;;;;;;4868349;29;20516;-73
2024/03/06 03:23:51;;;;;;;3.90;0.95;;;;;;;;;;4869697;29;20057;-74
2024/03/06 03:26:21;;;;;;;3.72;0.77;;;;;;;;;;4867424;29;20064;-73
2024/03/06 03:28:53;;;;;;;8.15;0.70;;;;;;;;;;4868957;29;20060;-74
2024/03/06 03:31:24;;;;;;;5.78;0.88;;;;;;;;;;4867339;29;20053;-74
2024/03/06 03:33:55;;;;;;;4.93;0.98;;;;;;;;;;4866669;29;20068;-74
2024/03/06 03:36:25;;;;;;;6.28;0.63;;;;;;;;;;4868752;29;20064;-73
2024/03/06 03:38:56;;;;;;;1.15;0.50;;;;;;;;;;4869145;29;20045;-74
2024/03/06 03:41:27;;;;;;;1.70;0.47;;;;;;;;;;4869136;29;20057;-73
2024/03/06 03:43:58;;;;;;;4.15;0.73;;;;;;;;;;4868700;29;20053;-73
2024/03/06 03:46:28;;;;;;;3.13;0.60;;;;;;;;;;4868915;29;21078;-73
2024/03/06 03:49:00;;;;;;;3.85;0.60;;;;;;;;;;4867112;29;20053;-74
2024/03/06 03:51:31;;;;;;;2.90;0.60;;;;;;;;;;4868717;29;20053;-74
2024/03/06 03:54:01;;;;;;;4.50;0.70;;;;;;;;;;4868358;29;20069;-73
2024/03/06 03:56:32;;;;;;;2.20;0.55;;;;;;;;;;4868479;29;20064;-74
2024/03/06 03:59:04;;;;;;;1.42;0.32;;;;;;;;;;4868061;29;20060;-74
2024/03/06 04:01:38;;;;;;;5.07;0.63;;;;;;;;;;4868698;29;20156;-73
2024/03/06 04:04:09;;;;;;;1.42;0.50;;;;;;;;;;4868803;29;20060;-73
2024/03/06 04:06:39;;;;;;;4.05;0.70;;;;;;;;;;4866824;29;20064;-74
2024/03/06 04:09:10;;;;;;;2.78;0.60;;;;;;;;;;4866937;29;20060;-73
2024/03/06 04:11:41;;;;;;;2.92;0.45;;;;;;;;;;4870443;29;20508;-73
2024/03/06 04:14:12;;;;;;;2.38;0.60;;;;;;;;;;4871956;29;20056;-74
2024/03/06 04:16:42;;;;;;;4.20;0.80;;;;;;;;;;4872491;29;20059;-73
2024/03/06 04:19:13;;;;;;;3.40;0.70;;;;;;;;;;4872325;29;20053;-74
2024/03/06 04:21:46;;;;;;;4.38;0.80;;;;;;;;;;4872098;29;20108;-74
2024/03/06 04:24:16;;;;;;;1.95;0.50;;;;;;;;;;4871716;29;20049;-74
2024/03/06 04:26:46;;;;;;;4.80;0.90;;;;;;;;;;4871736;29;20064;-73
2024/03/06 04:29:17;;;;;;;1.75;0.60;;;;;;;;;;4871447;29;20049;-73
2024/03/06 04:31:49;;;;;;;6.38;0.68;;;;;;;;;;4871741;29;20045;-73
2024/03/06 04:34:19;;;;;;;2.58;0.90;;;;;;;;;;4871589;29;20509;-73
2024/03/06 04:36:50;;;;;;;1.88;0.68;;;;;;;;;;4871709;29;20057;-74
2024/03/06 04:39:20;;;;;;;2.58;0.60;;;;;;;;;;4871463;29;20064;-73
2024/03/06 04:41:51;;;;;;;2.38;0.70;;;;;;;;;;4871640;29;20056;-73
2024/03/06 04:44:21;;;;;;;5.85;0.98;;;;;;;;;;4871869;29;20532;-73
2024/03/06 04:46:51;;;;;;;3.38;0.93;;;;;;;;;;4871217;29;20045;-74
2024/03/06 04:49:23;;;;;;;4.93;1.25;;;;;;;;;;4871599;29;20057;-74
2024/03/06 04:51:55;;;;;;;7.88;1.17;;;;;;;;;;4871268;29;20053;-73
2024/03/06 04:54:25;;;;;;;1.20;0.52;;;;;;;;;;4870868;29;20389;-74
2024/03/06 04:56:55;;;;;;;5.25;0.90;;;;;;;;;;4870922;29;20116;-73
2024/03/06 04:59:26;;;;;;;6.22;1.00;;;;;;;;;;4870913;29;20504;-74
2024/03/06 05:01:57;;;;;;;5.97;1.08;;;;;;;;;;4870738;29;20060;-73
2024/03/06 05:04:29;;;;;;;4.35;0.90;;;;;;;;;;4871356;29;20056;-73
2024/03/06 05:07:15;;;;;;;9.73;0.90;;;;;;;;;;4871500;29;20037;-73
2024/03/06 05:10:03;;;;;;;5.47;0.88;;;;;;;;;;4871297;29;20045;-74
2024/03/06 05:12:50;;;;;;;5.18;0.82;;;;;;;;;;4870856;29;20049;-74
2024/03/06 05:15:38;;;;;;;3.33;0.90;;;;;;;;;;4870696;29;20049;-73
2024/03/06 05:18:25;;;;;;;3.38;1.10;;;;;;;;;;4870754;29;20433;-73
2024/03/06 05:21:13;;;;;;;4.90;0.80;;;;;;;;;;4870832;29;20041;-74
2024/03/06 05:24:00;;;;;;;3.05;0.70;;;;;;;;;;4870782;29;20064;-73
2024/03/06 05:26:47;;;;;;;2.58;1.05;;;;;;;;;;4870422;29;20420;-73
2024/03/06 05:29:36;;;;;;;2.65;0.80;;;;;;;;;;4870381;29;20053;-73
2024/03/06 05:32:23;;;;;;;4.78;0.90;;;;;;;;;;4870551;29;20052;-73
2024/03/06 05:35:11;;;;;;;1.52;0.70;;;;;;;;;;4870888;29;20053;-73
2024/03/06 05:37:58;;;;;;;4.85;0.75;;;;;;;;;;4870999;29;20049;-73
2024/03/06 05:40:45;;;;;;;10.50;0.82;;;;;;;;;;4869427;29;20538;-73
2024/03/06 05:43:33;;;;;;;3.45;0.50;;;;;;;;;;4870175;29;20053;-73
2024/03/06 05:46:21;;;;;;;4.18;0.68;;;;;;;;;;4870510;29;20040;-74
2024/03/06 05:49:07;;;;;;;;;;;;;;;;;;4870392;29;20041;-74
2024/03/06 05:51:53;;;;;;;5.68;0.82;;;;;;;;;;4869703;29;19919;-74
2024/03/06 05:54:40;;;;;;;5.03;0.90;;;;;;;;;;4870499;29;20055;-73
2024/03/06 05:57:28;;;;;;;2.80;0.60;;;;;;;;;;4869359;29;20143;-73
2024/03/06 06:00:14;;;;;;;5.60;0.80;;;;;;;;;;4869943;29;20368;-73
2024/03/06 06:02:46;;;;;;;3.33;0.60;;;;;;;;;;4869837;29;20607;-73
2024/03/06 06:05:19;;;;;;;2.25;0.60;;;;;;;;;;4869924;29;20051;-73
2024/03/06 06:07:53;;;;;;;1.83;0.73;;;;;;;;;;4869623;29;20762;-73
2024/03/06 06:10:23;;;;;;;3.83;0.60;;;;;;;;;;4869074;29;20409;-73
2024/03/06 06:12:53;;;;;;;1.45;0.68;;;;;;;;;;4869931;29;20517;-73
2024/03/06 06:15:25;;;;;;;1.33;0.80;;;;;;;;;;4870032;29;20053;-73
2024/03/06 06:17:56;;;;;;;1.73;0.50;;;;;;;;;;4870232;29;20068;-74
2024/03/06 06:20:26;;;;;;;5.05;0.73;;;;;;;;;;4870330;29;20413;-74
2024/03/06 06:22:57;;;;;;;1.70;0.63;;;;;;;;;;4869908;29;20064;-73
2024/03/06 06:25:28;;;;;;;1.35;0.70;;;;;;;;;;4869800;29;20048;-73
2024/03/06 06:27:59;;;;;;;5.88;0.90;;;;;;;;;;4869819;29;20525;-73
2024/03/06 06:30:31;;;;;;;3.10;0.70;;;;;;;;;;4870880;29;20488;-73
2024/03/06 06:33:02;;;;;;;4.75;0.60;;;;;;;;;;4868784;29;20045;-73
2024/03/06 06:35:34;;;;;;;2.38;0.70;;;;;;;;;;4869260;29;20409;-73
2024/03/06 06:38:05;;;;;;;0.95;0.68;;;;;;;;;;4869383;29;20711;-73
2024/03/06 06:40:36;;;;;;;4.30;0.65;;;;;;;;;;4867298;29;20053;-73
2024/03/06 06:43:06;;;;;;;1.77;0.65;;;;;;;;;;4869409;29;20871;-73
2024/03/06 06:45:37;;;;;;;4.75;0.88;;;;;;;;;;4869149;29;20060;-73
2024/03/06 06:48:09;;;;;;;2.05;0.63;;;;;;;;;;4869172;29;20622;-73
2024/03/06 06:50:39;;;;;;;1.55;0.50;;;;;;;;;;4868884;29;20045;-73
2024/03/06 06:53:09;;;;;;;3.03;0.60;;;;;;;;;;4867900;29;20056;-74
2024/03/06 06:55:41;;;;;;;3.35;0.73;;;;;;;;;;4868962;29;20057;-73
2024/03/06 06:58:12;;;;;;;5.57;0.82;;;;;;;;;;4870305;29;20041;-73
2024/03/06 07:00:42;;;;;;;2.83;1.00;;;;;;;;;;4869584;29;20048;-73
2024/03/06 07:03:13;;;;;;;4.20;0.90;;;;;;;;;;4869549;29;20052;-73
2024/03/06 07:05:44;;;;;;;4.20;0.50;;;;;;;;;;4869299;29;20057;-74
2024/03/06 07:08:16;;;;;;;1.05;0.50;;;;;;;;;;4869507;29;20048;-73
2024/03/06 07:10:46;;;;;;;2.35;0.70;;;;;;;;;;4868205;29;20061;-73
2024/03/06 07:13:17;;;;;;;3.17;1.00;;;;;;;;;;4868843;29;20045;-73
2024/03/06 07:15:49;;;;;;;4.03;0.70;;;;;;;;;;4869330;29;20049;-73
2024/03/06 07:18:20;;;;;;;1.75;0.60;;;;;;;;;;4869308;29;20409;-73
2024/03/06 07:20:51;;;;;;;2.20;0.60;;;;;;;;;;4868524;29;20078;-73
2024/03/06 07:23:21;;;;;;;5.85;0.75;;;;;;;;;;4869380;29;20053;-73
2024/03/06 07:25:52;;;;;;;1.38;0.57;;;;;;;;;;4869491;29;20399;-74
2024/03/06 07:28:25;;;;;;;0.93;0.47;;;;;;;;;;4869155;29;20049;-73
2024/03/06 07:30:56;;;;;;;2.72;0.65;;;;;;;;;;4868477;29;20513;-73
2024/03/06 07:33:26;;;;;;;0.95;0.47;;;;;;;;;;4867396;29;20053;-73
2024/03/06 07:35:58;;;;;;;3.40;0.50;;;;;;;;;;4868958;29;20057;-74
2024/03/06 07:38:29;;;;;;;2.65;0.75;;;;;;;;;;4868370;29;20049;-73
2024/03/06 07:41:00;;;;;;;3.95;0.77;;;;;;;;;;4868881;29;20049;-73
2024/03/06 07:43:30;;;;;;;4.55;0.70;;;;;;;;;;4868828;29;20425;-73
2024/03/06 07:46:01;;;;;;;3.28;0.40;;;;;;;;;;4871560;29;20049;-73
2024/03/06 07:48:32;;;;;;;1.30;0.47;;;;;;;;;;4871468;29;20057;-74
2024/03/06 07:51:04;;;;;;;1.50;0.52;;;;;;;;;;4872747;29;20056;-73
2024/03/06 07:53:35;;;;;;;2.00;0.60;;;;;;;;;;4872412;29;20055;-74
2024/03/06 07:56:06;;;;;;;0.98;0.63;;;;;;;;;;4872377;29;20058;-73
2024/03/06 07:58:38;;;;;;;3.70;0.80;;;;;;;;;;4872397;29;20052;-73
2024/03/06 08:01:08;;;;;;;1.45;0.80;;;;;;;;;;4872092;29;20500;-73
2024/03/06 08:03:40;;;;;;;4.70;0.98;;;;;;;;;;4871999;29;20057;-73
2024/03/06 08:06:16;;;;;;;1.83;0.88;;;;;;;;;;4872101;29;20057;-73
2024/03/06 08:08:47;;;;;;;1.10;0.52;;;;;;;;;;4872212;29;20045;-74
2024/03/06 08:11:18;;;;;;;1.95;0.65;;;;;;;;;;4872031;29;20057;-73
2024/03/06 08:13:50;;;;;;;1.30;0.80;;;;;;;;;;4872137;29;20053;-73
2024/03/06 08:16:20;;;;;;;4.75;0.68;;;;;;;;;;4872150;29;20053;-74
2024/03/06 08:18:53;;;;;;;0.65;0.50;;;;;;;;;;4872081;29;20049;-74
2024/03/06 08:21:23;;;;;;;2.20;0.63;;;;;;;;;;4870166;29;20434;-74
2024/03/06 08:23:54;;;;;;;3.00;1.02;;;;;;;;;;4871586;29;20071;-73
2024/03/06 08:26:25;;;;;;;5.35;0.75;;;;;;;;;;4872154;29;20053;-73
2024/03/06 08:28:56;;;;;;;1.73;0.70;;;;;;;;;;4871849;29;20056;-73
2024/03/06 08:31:27;;;;;;;4.28;0.70;;;;;;;;;;4871403;29;20526;-73
2024/03/06 08:33:57;;;;;;;3.60;0.70;;;;;;;;;;4871357;29;20408;-73
2024/03/06 08:36:28;;;;;;;3.60;0.73;;;;;;;;;;4871877;29;20041;-73
2024/03/06 08:39:00;;;;;;;0.73;0.43;;;;;;;;;;4872218;29;20674;-73
2024/03/06 08:41:31;;;;;;;2.60;0.40;;;;;;;;;;4872331;29;20052;-74
2024/03/06 08:44:03;;;;;;;2.28;0.43;;;;;;;;;;4870151;29;20064;-73
2024/03/06 08:46:34;;;;;;;3.95;0.68;;;;;;;;;;4869084;29;20516;-73
2024/03/06 08:49:06;;;;;;;3.28;0.80;;;;;;;;;;4871778;29;20055;-73
2024/03/06 08:51:39;;;;;;;3.95;0.68;;;;;;;;;;4871563;29;20053;-73
2024/03/06 08:54:10;;;;;;;4.68;0.50;;;;;;;;;;4871015;29;20049;-73
2024/03/06 08:56:44;;;;;;;1.98;0.65;;;;;;;;;;4870649;29;20061;-74
2024/03/06 08:59:16;;;;;;;3.80;1.20;;;;;;;;;;4869656;29;20060;-74
2024/03/06 09:01:47;;;;;;;0.95;0.52;;;;;;;;;;4871193;29;20060;-73
2024/03/06 09:04:17;;;;;;;3.42;0.88;;;;;;;;;;4871395;29;20061;-76
2024/03/06 09:06:51;;;;;;;3.33;0.60;;;;;;;;;;4871295;29;20056;-73
2024/03/06 09:09:23;;;;;;;2.58;0.60;;;;;;;;;;4871135;29;20063;-72
2024/03/06 09:11:53;;;;;;;1.90;0.60;;;;;;;;;;4852434;29;20053;-73
2024/03/06 09:14:23;;;;;;;1.30;0.40;;;;;;;;;;4852587;29;20413;-73
2024/03/06 09:16:56;;;;;;;3.10;0.70;;;;;;;;;;4852104;29;20064;-73
2024/03/06 09:19:28;;;;;;;1.33;0.38;;;;;;;;;;4852216;29;20827;-74
2024/03/06 09:21:59;;;;;;;5.30;0.75;;;;;;;;;;4851998;29;20611;-73
2024/03/06 09:24:30;;;;;;;6.47;0.98;;;;;;;;;;4852187;29;20374;-74
2024/03/06 09:27:01;;;;;;;2.50;0.88;;;;;;;;;;4851700;29;20433;-73
2024/03/06 09:29:32;;;;;;;3.60;0.60;;;;;;;;;;4852120;29;20061;-73
2024/03/06 09:32:03;;;;;;;2.33;0.60;;;;;;;;;;4851739;29;20408;-73
2024/03/06 09:34:33;;;;;;;2.03;0.70;;;;;;;;;;4852070;29;20421;-74
2024/03/06 09:37:04;;;;;;;1.90;0.65;;;;;;;;;;4852118;29;20050;-74
2024/03/06 09:39:37;;;;;;;2.70;0.55;;;;;;;;;;4850439;29;20409;-74
2024/03/06 09:42:08;;;;;;;1.27;0.80;;;;;;;;;;4851810;29;20058;-73
2024/03/06 09:44:40;;;;;;;0.90;0.60;;;;;;;;;;4851870;29;20505;-73
2024/03/06 09:47:25;;;;;;;4.63;0.80;;;;;;;;;;4851564;29;20053;-73
2024/03/06 09:49:57;;;;;;;1.35;0.70;;;;;;;;;;4851941;29;20045;-74
2024/03/06 09:52:27;;;;;;;0.80;0.70;;;;;;;;;;4851442;29;20062;-72
2024/03/06 09:54:59;;;;;;;1.45;0.60;;;;;;;;;;4850129;29;20520;-75
2024/03/06 09:57:33;;;;;;;1.15;0.68;;;;;;;;;;4852061;29;20045;-82
2024/03/06 10:00:14;;;;;;;4.25;1.05;;;;;;;;;;4850086;29;20455;-73
2024/03/06 10:03:08;;;;;;;5.03;1.70;;;;;;;;;;4850371;29;20060;-74
2024/03/06 10:05:38;;;;;;;7.63;1.35;;;;;;;;;;4849475;29;20615;-73
2024/03/06 10:08:10;;;;;;;5.15;0.95;;;;;;;;;;4849909;29;20049;-74
2024/03/06 10:10:43;;;;;;;4.38;1.40;;;;;;;;;;4850012;29;20061;-73
2024/03/06 10:13:22;;;;;;;2.90;1.15;;;;;;;;;;4850786;29;20045;-78
2024/03/06 10:16:08;;;;;;;7.32;1.00;;;;;;;;;;4850945;29;20075;-73
2024/03/06 10:18:39;;;;;;;3.65;0.65;;;;;;;;;;4851294;29;20413;-78
2024/03/06 10:21:10;;;;;;;4.78;1.55;;;;;;;;;;4850937;29;20128;-74
2024/03/06 10:23:41;;;;;;;7.20;1.98;;;;;;;;;;4850790;29;20061;-75
2024/03/06 10:26:12;;;;;;;4.97;1.40;;;;;;;;;;4851448;29;20049;-73
2024/03/06 10:28:48;;;;;;;11.02;1.70;;;;;;;;;;4851355;29;20064;-78
2024/03/06 10:31:29;;;;;;;8.15;1.42;;;;;;;;;;4851612;29;20045;-73
2024/03/06 10:33:59;;;;;;;13.82;1.50;;;;;;;;;;4851056;29;20401;-72
2024/03/06 10:36:32;;;;;;;3.22;0.95;;;;;;;;;;4849864;29;20061;-74
2024/03/06 10:39:04;;;;;;;4.15;1.33;;;;;;;;;;4851180;29;20068;-73
2024/03/06 10:41:37;;;;;;;3.80;1.10;;;;;;;;;;4850119;29;20053;-73
2024/03/06 10:44:15;;;;;;;8.40;1.75;;;;;;;;;;4850984;29;20061;-73
2024/03/06 10:46:47;;;;;;;7.15;1.58;;;;;;;;;;4850742;29;20053;-73
2024/03/06 10:49:19;;;;;;;9.32;1.40;;;;;;;;;;4850640;29;20053;-73
2024/03/06 10:51:52;;;;;;;6.63;4.65;;;;;;;;;;4850673;29;20052;-74
2024/03/06 10:54:23;;;;;;;4.43;1.08;;;;;;;;;;4849378;29;20811;-73
2024/03/06 10:56:55;;;;;;;10.07;1.45;;;;;;;;;;4850478;29;20065;-73
2024/03/06 10:59:29;;;;;;;12.35;1.55;;;;;;;;;;4849348;29;20536;-73
2024/03/06 11:02:02;;;;;;;6.25;1.30;;;;;;;;;;4850949;29;20061;-73
2024/03/06 11:04:35;;;;;;;9.93;1.65;;;;;;;;;;4850544;29;20425;-73
2024/03/06 11:07:06;;;;;;;3.38;1.30;;;;;;;;;;4850070;29;20049;-73
2024/03/06 11:09:42;;;;;;;3.85;1.25;;;;;;;;;;4850366;29;20064;-73
2024/03/06 11:12:14;;;;;;;4.82;2.25;;;;;;;;;;4850163;29;20056;-73
2024/03/06 11:14:44;;;;;;;3.35;1.25;;;;;;;;;;4850704;29;20442;-73
2024/03/06 11:17:14;;;;;;;7.25;1.38;;;;;;;;;;4850486;29;20057;-73
2024/03/06 11:20:00;;;;;;;3.25;1.08;;;;;;;;;;4850849;29;20052;-73
2024/03/06 11:23:08;;;;;;;9.10;1.70;;;;;;;;;;4849131;29;20060;-73
2024/03/06 11:25:47;;;;;;;9.48;1.40;;;;;;;;;;4849659;29;20053;-73
2024/03/06 11:28:18;;;;;;;5.75;1.48;;;;;;;;;;4848629;29;20549;-73
2024/03/06 11:31:11;;;;;;;5.15;1.60;;;;;;;;;;4850197;29;20425;-78
2024/03/06 11:33:46;;;;;;;6.80;1.67;;;;;;;;;;4850914;29;20516;-73
2024/03/06 11:36:30;;;;;;;12.90;1.67;;;;;;;;;;4849239;29;20058;-74
2024/03/06 11:39:08;;;;;;;4.93;1.20;;;;;;;;;;4849871;29;20049;-75
2024/03/06 11:41:50;;;;;;;4.40;1.65;;;;;;;;;;4850347;29;20425;-78
2024/03/06 11:44:26;;;;;;;4.70;1.85;;;;;;;;;;4850416;29;20050;-73
2024/03/06 11:47:04;;;;;;;5.55;2.35;;;;;;;;;;4849888;29;20053;-73
2024/03/06 11:49:37;;;;;;;11.05;1.52;;;;;;;;;;4849890;29;20056;-78
2024/03/06 11:52:09;;;;;;;8.07;1.55;;;;;;;;;;4849943;29;20042;-73
2024/03/06 11:54:41;;;;;;;8.68;1.42;;;;;;;;;;4850455;29;20049;-73
2024/03/06 11:57:16;;;;;;;11.40;1.42;;;;;;;;;;4850101;29;20429;-73
2024/03/06 11:59:46;;;;;;;7.85;1.45;;;;;;;;;;4850299;29;20057;-73
2024/03/06 12:02:17;;;;;;;7.55;1.73;;;;;;;;;;4849701;29;20061;-73
2024/03/06 12:04:51;;;;;;;4.10;1.20;;;;;;;;;;4850050;29;20061;-74
2024/03/06 12:07:22;;;;;;;4.90;1.25;;;;;;;;;;4850203;29;20049;-74
2024/03/06 12:09:53;;;;;;;2.83;1.20;;;;;;;;;;4850582;29;20489;-74
2024/03/06 12:12:25;;;;;;;6.63;1.55;;;;;;;;;;4849700;29;20057;-74
2024/03/06 12:15:06;;;;;;;7.72;1.30;;;;;;;;;;4849467;29;20049;-74
2024/03/06 12:17:46;;;;;;;8.18;1.33;;;;;;;;;;4849613;29;20053;-76
2024/03/06 12:20:18;;;;;;;4.95;1.63;;;;;;;;;;4850229;29;20049;-74
2024/03/06 12:22:56;;;;;;;4.88;1.67;;;;;;;;;;4848472;29;20061;-73
2024/03/06 12:25:28;;;;;;;4.72;1.23;;;;;;;;;;4849705;29;20080;-73
2024/03/06 12:28:10;;;;;;;2.47;0.98;;;;;;;;;;4849137;29;20528;-73
2024/03/06 12:30:47;;;;;;;3.42;1.20;;;;;;;;;;4849783;29;20420;-74
2024/03/06 12:33:20;;;;;;;21.08;1.58;;;;;;;;;;4850886;29;20061;-74
2024/03/06 12:36:10;;;;;;;8.07;1.35;;;;;;;;;;4852996;29;20050;-73
2024/03/06 12:38:40;;;;;;;6.95;1.17;;;;;;;;;;4856324;29;21302;-74
2024/03/06 12:41:10;;;;;;;5.07;1.38;;;;;;;;;;4853103;29;20349;-74
2024/03/06 12:43:41;;;;;;;7.03;1.52;;;;;;;;;;4852891;29;20502;-74
2024/03/06 12:46:13;;;;;;;3.05;1.00;;;;;;;;;;4852572;29;20468;-73
2024/03/06 12:48:44;;;;;;;5.32;1.10;;;;;;;;;;4853092;29;20046;-78
2024/03/06 12:51:14;;;;;;;6.90;2.10;;;;;;;;;;4852853;29;20057;-74
2024/03/06 12:53:48;;;;;;;6.50;1.27;;;;;;;;;;4853074;29;20049;-74
2024/03/06 12:56:21;;;;;;;4.72;1.20;;;;;;;;;;4852640;29;20539;-74
2024/03/06 12:58:54;;;;;;;5.88;1.30;;;;;;;;;;4853072;29;20522;-74
2024/03/06 13:01:24;;;;;;;3.85;1.20;;;;;;;;;;4852202;29;20050;-74
2024/03/06 13:03:56;;;;;;;4.20;1.48;;;;;;;;;;4852927;29;20045;-74
2024/03/06 13:06:36;;;;;;;7.50;1.83;;;;;;;;;;4852393;29;20049;-74
2024/03/06 13:09:09;;;;;;;5.57;1.33;;;;;;;;;;4851928;29;20421;-74
2024/03/06 13:11:42;;;;;;;5.90;1.60;;;;;;;;;;4850809;29;20057;-74
2024/03/06 13:14:13;;;;;;;4.95;1.05;;;;;;;;;;4852213;29;20073;-74
2024/03/06 13:16:44;;;;;;;4.82;1.20;;;;;;;;;;4852936;29;20053;-74
2024/03/06 13:19:15;;;;;;;5.55;1.13;;;;;;;;;;4852089;29;20528;-74
2024/03/06 13:21:45;;;;;;;4.32;1.38;;;;;;;;;;4851957;29;20555;-74
2024/03/06 13:24:16;;;;;;;2.70;1.10;;;;;;;;;;4852302;29;20045;-74
2024/03/06 13:26:48;;;;;;;3.15;1.05;;;;;;;;;;4852070;29;20053;-74
2024/03/06 13:29:18;;;;;;;2.97;0.90;;;;;;;;;;4852934;29;20050;-74
2024/03/06 13:31:48;;;;;;;2.28;0.70;;;;;;;;;;4852642;29;20498;-74
2024/03/06 13:34:22;;;;;;;5.05;0.95;;;;;;;;;;4852020;29;20098;-74
2024/03/06 13:36:54;;;;;;;5.43;0.80;;;;;;;;;;4851983;29;20427;-75
2024/03/06 13:39:25;;;;;;;5.55;1.00;;;;;;;;;;4851749;29;20057;-73
2024/03/06 13:41:55;;;;;;;5.60;0.80;;;;;;;;;;4850973;29;20053;-74
2024/03/06 13:44:26;;;;;;;3.35;0.80;;;;;;;;;;4851192;29;20080;-76
2024/03/06 13:46:57;;;;;;;3.08;0.75;;;;;;;;;;4852152;29;20069;-75
2024/03/06 13:49:37;;;;;;;8.48;0.90;;;;;;;;;;4851845;29;20061;-74
2024/03/06 13:52:10;;;;;;;2.72;0.63;;;;;;;;;;4851570;29;20390;-73
2024/03/06 13:54:42;;;;;;;3.80;1.00;;;;;;;;;;4851258;29;20049;-78
2024/03/06 13:57:15;;;;;;;3.45;0.77;;;;;;;;;;4851500;29;20556;-83
2024/03/06 13:59:45;;;;;;;3.53;1.02;;;;;;;;;;4852099;29;20037;-74
2024/03/06 14:02:15;;;;;;;5.15;1.52;;;;;;;;;;4852169;29;20057;-74
2024/03/06 14:04:47;;;;;;;4.85;0.80;;;;;;;;;;4851829;29;20057;-73
2024/03/06 14:07:20;;;;;;;7.07;0.90;;;;;;;;;;4850051;29;20061;-75
2024/03/06 14:09:53;;;;;;;2.58;0.73;;;;;;;;;;4852051;29;20057;-73
2024/03/06 14:12:24;;;;;;;4.65;0.75;;;;;;;;;;4851699;29;20524;-74
2024/03/06 14:14:56;;;;;;;3.63;1.00;;;;;;;;;;4852608;29;20053;-74
2024/03/06 14:17:28;;;;;;;5.85;0.82;;;;;;;;;;4851546;29;20056;-74
2024/03/06 14:19:58;;;;;;;4.28;1.40;;;;;;;;;;4851900;29;20065;-73
2024/03/06 14:22:32;;;;;;;5.03;0.93;;;;;;;;;;4850291;29;20050;-74
2024/03/06 14:25:04;;;;;;;1.33;0.55;;;;;;;;;;4852314;29;20057;-73
2024/03/06 14:27:37;;;;;;;4.60;0.77;;;;;;;;;;4851306;29;20061;-73
2024/03/06 14:30:08;;;;;;;1.88;0.70;;;;;;;;;;4849658;29;20374;-74
2024/03/06 14:32:39;;;;;;;3.35;0.75;;;;;;;;;;4850958;29;20069;-76
2024/03/06 14:35:10;;;;;;;2.78;0.80;;;;;;;;;;4850867;29;20453;-75
2024/03/06 14:37:44;;;;;;;4.95;0.85;;;;;;;;;;4850667;29;20080;-73
2024/03/06 14:40:14;;;;;;;3.58;0.60;;;;;;;;;;4849261;29;20049;-75
2024/03/06 14:42:44;;;;;;;3.05;0.73;;;;;;;;;;4851356;29;20050;-74
2024/03/06 14:45:16;;;;;;;1.83;0.70;;;;;;;;;;4851683;29;20049;-74
2024/03/06 14:47:49;;;;;;;4.95;0.93;;;;;;;;;;4851034;29;20064;-74
2024/03/06 14:50:19;;;;;;;2.30;0.70;;;;;;;;;;4852603;29;20084;-74
2024/03/06 14:52:49;;;;;;;5.75;0.80;;;;;;;;;;4850822;29;20080;-74
2024/03/06 14:55:22;;;;;;;5.85;1.00;;;;;;;;;;4849826;29;20087;-87
2024/03/06 14:57:54;;;;;;;1.65;0.55;;;;;;;;;;4849571;29;20049;-73
2024/03/06 15:00:25;;;;;;;1.40;0.70;;;;;;;;;;4850716;29;20057;-77
2024/03/06 15:02:58;;;;;;;4.30;0.52;;;;;;;;;;4851093;29;20053;-73
2024/03/06 15:05:31;;;;;;;2.38;0.70;;;;;;;;;;4850614;29;20441;-72
2024/03/06 15:08:04;;;;;;;6.72;0.52;;;;;;;;;;4850527;29;20060;-74
2024/03/06 15:10:35;;;;;;;4.95;0.65;;;;;;;;;;4850020;29;20453;-74
2024/03/06 15:13:05;;;;;;;3.25;0.40;;;;;;;;;;4850249;29;20053;-73
2024/03/06 15:15:36;;;;;;;5.30;0.70;;;;;;;;;;4851318;29;20077;-74
2024/03/06 15:18:10;;;;;;;4.15;0.75;;;;;;;;;;4849914;29;20394;-78
2024/03/06 15:20:41;;;;;;;3.78;0.80;;;;;;;;;;4850898;29;20057;-74
2024/03/06 15:23:12;;;;;;;3.90;0.50;;;;;;;;;;4850968;29;21090;-74
2024/03/06 15:25:45;;;;;;;4.90;0.88;;;;;;;;;;4850778;29;20057;-75
2024/03/06 15:28:16;;;;;;;2.78;0.73;;;;;;;;;;4850392;29;20057;-75